Time;durP1;ratioP1;P1;durP2;ratioP2;P2;SDS_P1;SDS_P2;PMS_P1;PMS_P2;Temp;Humidity;BMP_temperature;BMP_pressure;BME280_temperature;BME280_humidity;BME280_pressure;Samples;Min_cycle;Max_cycle;Signal;HPM_P1;HPM_P2
2021/10/08 00:00:09;;;;;;;9.15;3.22;;;10.20;86.10;;;;;;1847182;76;21128;-48
2021/10/08 00:02:45;;;;;;;10.20;3.62;;;10.10;86.00;;;;;;1846961;76;21041;-50
2021/10/08 00:05:14;;;;;;;10.35;3.22;;;10.10;86.10;;;;;;1847158;76;21107;-48
2021/10/08 00:07:43;;;;;;;9.05;2.90;;;10.10;86.20;;;;;;1847023;77;21088;-48
2021/10/08 00:10:13;;;;;;;9.20;3.83;;;10.10;86.20;;;;;;1847056;78;21099;-48
2021/10/08 00:12:42;;;;;;;8.68;3.10;;;10.10;86.40;;;;;;1847048;78;21103;-48
2021/10/08 00:15:11;;;;;;;8.55;3.05;;;10.10;86.40;;;;;;1847123;76;21089;-47
2021/10/08 00:17:41;;;;;;;4.90;2.90;;;10.00;86.40;;;;;;1847037;78;21116;-46
2021/10/08 00:20:12;;;;;;;11.03;3.00;;;10.00;86.40;;;;;;1846988;77;21061;-48
2021/10/08 00:22:41;;;;;;;11.40;3.52;;;10.00;86.60;;;;;;1846961;76;21073;-47
2021/10/08 00:25:11;;;;;;;8.03;3.50;;;10.00;86.50;;;;;;1846980;77;21139;-46
2021/10/08 00:27:40;;;;;;;8.50;3.80;;;10.00;86.60;;;;;;1846897;77;21162;-47
2021/10/08 00:30:10;;;;;;;6.97;3.33;;;10.00;86.60;;;;;;1847092;76;21034;-48
2021/10/08 00:32:40;;;;;;;6.97;3.45;;;10.00;86.60;;;;;;1847086;78;21029;-47
2021/10/08 00:35:09;;;;;;;9.68;3.55;;;10.10;86.70;;;;;;1846973;77;21038;-47
2021/10/08 00:37:39;;;;;;;8.43;3.12;;;10.10;86.70;;;;;;1847215;78;21030;-49
2021/10/08 00:40:09;;;;;;;8.83;3.60;;;10.10;86.70;;;;;;1847011;78;21103;-47
2021/10/08 00:42:39;;;;;;;6.35;2.62;;;10.10;86.80;;;;;;1886159;75;21066;-48
2021/10/08 00:45:09;;;;;;;15.93;3.70;;;10.10;86.70;;;;;;1891722;76;21571;-47
2021/10/08 00:47:39;;;;;;;9.53;3.58;;;10.10;86.90;;;;;;1891439;76;21167;-47
2021/10/08 00:50:09;;;;;;;4.95;3.27;;;10.00;86.80;;;;;;1891498;76;21103;-48
2021/10/08 00:52:39;;;;;;;7.45;2.85;;;10.00;86.90;;;;;;1891537;76;21030;-47
2021/10/08 00:55:09;;;;;;;7.05;3.27;;;10.00;86.90;;;;;;1891540;76;21092;-48
2021/10/08 00:57:39;;;;;;;12.50;4.25;;;9.90;86.90;;;;;;1891545;76;21030;-47
2021/10/08 01:00:09;;;;;;;15.68;4.03;;;10.00;87.10;;;;;;1891460;76;21026;-48
2021/10/08 01:02:38;;;;;;;9.25;3.22;;;9.90;87.10;;;;;;1891461;75;21038;-46
2021/10/08 01:05:09;;;;;;;8.68;3.27;;;10.00;87.10;;;;;;1891416;76;21115;-46
2021/10/08 01:07:39;;;;;;;7.70;4.00;;;10.00;87.10;;;;;;1891446;76;21002;-49
2021/10/08 01:10:08;;;;;;;9.18;3.60;;;10.00;87.00;;;;;;1891480;76;21100;-46
2021/10/08 01:12:39;;;;;;;8.25;3.37;;;10.00;87.10;;;;;;1891434;75;21097;-49
2021/10/08 01:15:09;;;;;;;12.18;3.37;;;10.00;87.00;;;;;;1891466;75;21488;-47
2021/10/08 01:17:40;;;;;;;11.03;3.62;;;10.00;87.00;;;;;;1891425;75;21026;-46
2021/10/08 01:20:13;;;;;;;17.20;4.08;;;9.90;87.00;;;;;;1891459;76;21112;-48
2021/10/08 01:22:44;;;;;;;13.05;4.10;;;9.90;87.00;;;;;;1890915;75;21152;-48
2021/10/08 01:25:15;;;;;;;7.55;3.20;;;9.90;86.90;;;;;;1891082;75;21082;-49
2021/10/08 01:27:44;;;;;;;6.58;3.55;;;9.90;86.90;;;;;;1891457;76;21034;-46
2021/10/08 01:30:19;;;;;;;15.93;4.20;;;9.90;87.00;;;;;;1891099;75;21109;-48
2021/10/08 01:32:49;;;;;;;10.43;4.05;;;9.90;86.90;;;;;;1891521;76;21321;-47
2021/10/08 01:35:20;;;;;;;14.50;3.62;;;9.90;87.00;;;;;;1891471;76;21038;-49
2021/10/08 01:37:51;;;;;;;12.53;3.80;;;9.80;87.00;;;;;;1891323;75;21030;-48
2021/10/08 01:40:21;;;;;;;12.65;3.65;;;9.80;87.10;;;;;;1891354;76;21042;-46
2021/10/08 01:42:52;;;;;;;14.03;4.30;;;9.80;87.20;;;;;;1859186;75;21092;-48
2021/10/08 01:45:22;;;;;;;15.30;4.62;;;9.70;87.20;;;;;;1846896;78;21073;-47
2021/10/08 01:47:52;;;;;;;13.00;3.85;;;9.70;87.20;;;;;;1846906;76;21053;-48
2021/10/08 01:50:21;;;;;;;11.55;3.90;;;9.70;87.40;;;;;;1846902;78;21024;-48
2021/10/08 01:52:50;;;;;;;12.43;4.12;;;9.70;87.20;;;;;;1846946;78;21025;-46
2021/10/08 01:55:21;;;;;;;12.68;4.22;;;9.70;87.20;;;;;;1846890;76;21054;-46
2021/10/08 01:57:54;;;;;;;13.35;3.80;;;9.70;87.10;;;;;;1845943;78;21033;-48
2021/10/08 02:00:25;;;;;;;6.35;3.87;;;9.70;87.30;;;;;;1847086;78;21038;-47
2021/10/08 02:02:55;;;;;;;9.28;4.12;;;9.60;87.40;;;;;;1846117;78;21056;-50
2021/10/08 02:05:26;;;;;;;10.95;4.42;;;9.60;87.40;;;;;;1847081;76;21057;-47
2021/10/08 02:07:56;;;;;;;10.28;4.17;;;9.60;87.40;;;;;;1846979;77;21050;-46
2021/10/08 02:10:27;;;;;;;10.13;3.90;;;9.60;87.50;;;;;;1846059;77;21523;-47
2021/10/08 02:12:56;;;;;;;13.30;3.90;;;9.60;87.40;;;;;;1847079;77;21095;-47
2021/10/08 02:15:26;;;;;;;6.47;4.30;;;9.60;87.50;;;;;;1847029;78;21030;-49
2021/10/08 02:17:56;;;;;;;13.60;3.92;;;9.60;87.60;;;;;;1847052;76;21001;-46
2021/10/08 02:20:25;;;;;;;10.50;4.03;;;9.60;87.60;;;;;;1847056;77;21049;-47
2021/10/08 02:22:55;;;;;;;15.08;4.47;;;9.60;87.50;;;;;;1847102;77;21033;-46
2021/10/08 02:25:25;;;;;;;10.98;3.77;;;9.60;87.60;;;;;;1847052;78;21029;-46
2021/10/08 02:27:54;;;;;;;17.70;4.42;;;9.50;87.50;;;;;;1847081;77;21026;-47
2021/10/08 02:30:24;;;;;;;11.05;3.87;;;9.50;87.50;;;;;;1846995;78;21026;-48
2021/10/08 02:32:54;;;;;;;17.40;5.35;;;9.50;87.60;;;;;;1847003;77;21141;-48
2021/10/08 02:35:24;;;;;;;12.78;4.42;;;9.50;87.70;;;;;;1847074;76;21018;-45
2021/10/08 02:37:53;;;;;;;14.75;4.58;;;9.50;87.60;;;;;;1847099;78;21096;-46
2021/10/08 02:40:23;;;;;;;17.05;4.12;;;9.50;87.70;;;;;;1847043;76;21006;-46
2021/10/08 02:42:54;;;;;;;9.35;4.45;;;9.50;87.70;;;;;;1867419;75;21496;-48
2021/10/08 02:45:23;;;;;;;19.73;4.97;;;9.40;87.70;;;;;;1891471;76;21006;-47
2021/10/08 02:47:53;;;;;;;14.35;3.85;;;9.40;87.60;;;;;;1891591;76;21093;-46
2021/10/08 02:50:23;;;;;;;15.00;4.05;;;9.40;87.50;;;;;;1891525;75;21070;-47
2021/10/08 02:52:52;;;;;;;14.78;4.70;;;9.40;87.60;;;;;;1891505;76;21069;-48
2021/10/08 02:55:22;;;;;;;21.73;4.85;;;9.40;87.60;;;;;;1871472;76;21089;-47
2021/10/08 02:57:52;;;;;;;15.88;5.75;;;9.30;87.40;;;;;;1891495;76;21353;-49
2021/10/08 03:00:21;;;;;;;13.72;4.92;;;9.20;87.40;;;;;;1891476;76;21097;-48
2021/10/08 03:02:50;;;;;;;19.12;4.92;;;9.20;87.50;;;;;;1891499;76;21050;-47
2021/10/08 03:05:20;;;;;;;8.85;4.10;;;9.20;87.70;;;;;;1891483;76;21008;-47
2021/10/08 03:07:49;;;;;;;12.05;4.17;;;9.10;87.80;;;;;;1891618;76;21022;-47
2021/10/08 03:10:19;;;;;;;14.38;4.33;;;9.10;87.90;;;;;;1871476;76;20999;-46
2021/10/08 03:12:49;;;;;;;12.82;4.58;;;9.20;88.00;;;;;;1891708;76;21026;-46
2021/10/08 03:15:19;;;;;;;11.48;4.47;;;9.20;88.00;;;;;;1891644;76;21055;-48
2021/10/08 03:17:49;;;;;;;19.80;4.40;;;9.20;87.80;;;;;;1891679;76;21096;-46
2021/10/08 03:20:18;;;;;;;11.65;4.15;;;9.20;87.70;;;;;;1891606;76;21034;-46
2021/10/08 03:22:48;;;;;;;14.63;4.33;;;9.10;87.40;;;;;;1891556;76;21092;-47
2021/10/08 03:25:17;;;;;;;19.23;5.65;;;9.10;87.50;;;;;;1891604;76;21092;-50
2021/10/08 03:27:47;;;;;;;19.35;4.83;;;9.00;87.70;;;;;;1891629;76;21030;-50
2021/10/08 03:30:17;;;;;;;15.80;5.28;;;9.00;87.70;;;;;;1891563;76;21088;-46
2021/10/08 03:32:46;;;;;;;15.55;5.55;;;9.00;87.80;;;;;;1891574;76;21030;-46
2021/10/08 03:35:16;;;;;;;19.87;7.35;;;9.00;87.80;;;;;;1891625;76;21026;-46
2021/10/08 03:40:29;;;;;;;24.40;6.80;;;9.00;87.90;;;;;;1891655;76;21120;-47
2021/10/08 03:42:53;;;;;;;17.48;7.72;;;9.00;87.90;;;;;;1886061;75;21063;-46
2021/10/08 03:45:23;;;;;;;25.75;7.08;;;9.00;87.90;;;;;;1872855;77;21429;-50
2021/10/08 03:50:30;;;;;;;22.25;6.40;;;9.00;87.70;;;;;;1872873;76;21047;-46
2021/10/08 03:53:00;;;;;;;25.12;10.53;;;9.00;87.70;;;;;;1872906;75;21027;-47
2021/10/08 03:55:29;;;;;;;12.35;5.47;;;8.90;87.70;;;;;;1872769;76;21007;-47
2021/10/08 03:57:58;;;;;;;20.72;7.97;;;8.90;87.70;;;;;;1872835;77;21019;-49
2021/10/08 04:00:28;;;;;;;12.65;5.00;;;8.90;87.70;;;;;;1872730;77;21029;-47
2021/10/08 04:02:59;;;;;;;10.35;5.17;;;8.80;87.70;;;;;;1872162;76;21095;-47
2021/10/08 04:05:29;;;;;;;13.65;4.60;;;8.80;87.60;;;;;;1872807;76;21094;-47
2021/10/08 04:07:59;;;;;;;12.50;4.58;;;8.70;87.60;;;;;;1872742;77;21034;-46
2021/10/08 04:10:29;;;;;;;13.00;4.75;;;8.70;87.80;;;;;;1872836;76;21096;-49
2021/10/08 04:12:59;;;;;;;16.57;5.05;;;8.70;88.00;;;;;;1872723;77;21120;-48
2021/10/08 04:15:29;;;;;;;12.58;5.33;;;8.70;87.80;;;;;;1872778;77;21043;-47
2021/10/08 04:18:00;;;;;;;16.42;5.28;;;8.70;87.90;;;;;;1872842;77;21043;-48
2021/10/08 04:20:30;;;;;;;11.57;5.20;;;8.70;87.70;;;;;;1872777;77;21051;-49
2021/10/08 04:22:59;;;;;;;17.77;5.87;;;8.70;87.90;;;;;;1872603;75;21035;-49
2021/10/08 04:25:30;;;;;;;17.82;5.62;;;8.60;87.70;;;;;;1872776;77;21043;-49
2021/10/08 04:27:59;;;;;;;14.53;5.33;;;8.60;87.80;;;;;;1872862;77;21034;-48
2021/10/08 04:30:29;;;;;;;13.70;5.45;;;8.60;87.80;;;;;;1872897;77;21054;-46
2021/10/08 04:32:58;;;;;;;19.98;5.15;;;8.60;87.70;;;;;;1872666;77;21035;-48
2021/10/08 04:35:28;;;;;;;9.28;4.67;;;8.60;87.70;;;;;;1872801;77;20999;-48
2021/10/08 04:37:58;;;;;;;12.20;4.28;;;8.60;88.00;;;;;;1872689;76;21046;-47
2021/10/08 04:40:28;;;;;;;12.60;5.08;;;8.60;87.80;;;;;;1872668;75;21026;-49
2021/10/08 04:42:57;;;;;;;16.12;4.95;;;8.60;87.80;;;;;;1872668;76;21081;-47
2021/10/08 04:45:27;;;;;;;15.38;5.10;;;8.70;88.10;;;;;;1872880;76;21085;-46
2021/10/08 04:47:57;;;;;;;15.43;5.47;;;8.70;87.80;;;;;;1872732;77;21012;-50
2021/10/08 04:50:27;;;;;;;8.90;5.00;;;8.70;87.80;;;;;;1872656;76;21019;-50
2021/10/08 04:52:57;;;;;;;12.43;5.10;;;8.70;87.70;;;;;;1872728;75;21051;-48
2021/10/08 04:55:27;;;;;;;9.58;5.53;;;8.70;87.70;;;;;;1872753;77;21031;-50
2021/10/08 04:57:56;;;;;;;16.07;6.10;;;8.70;87.70;;;;;;1872717;77;21022;-50
2021/10/08 05:00:26;;;;;;;11.90;6.42;;;8.70;87.40;;;;;;1872716;77;21152;-50
2021/10/08 05:02:57;;;;;;;14.43;6.17;;;8.70;87.50;;;;;;1872682;76;21003;-49
2021/10/08 05:05:26;;;;;;;13.55;6.10;;;8.80;87.70;;;;;;1872713;76;21035;-50
2021/10/08 05:07:56;;;;;;;12.13;5.87;;;8.80;87.30;;;;;;1872704;77;21036;-51
2021/10/08 05:10:26;;;;;;;13.90;5.10;;;8.80;87.40;;;;;;1872656;76;21039;-50
2021/10/08 05:12:55;;;;;;;7.35;4.65;;;8.80;87.20;;;;;;1872780;77;21043;-50
2021/10/08 05:15:25;;;;;;;8.65;3.85;;;8.80;87.10;;;;;;1872527;77;21089;-50
2021/10/08 05:17:55;;;;;;;6.55;4.10;;;8.80;87.30;;;;;;1872696;76;21051;-51
2021/10/08 05:20:24;;;;;;;14.47;4.55;;;8.90;87.30;;;;;;1872561;77;20999;-50
2021/10/08 05:22:54;;;;;;;12.15;4.70;;;8.90;87.20;;;;;;1872632;75;21034;-51
2021/10/08 05:25:24;;;;;;;8.68;4.03;;;8.90;87.20;;;;;;1872662;77;21540;-50
2021/10/08 05:27:54;;;;;;;10.95;4.45;;;8.90;87.00;;;;;;1872525;77;21074;-49
2021/10/08 05:30:24;;;;;;;13.53;4.75;;;9.00;87.30;;;;;;1872741;77;21160;-50
2021/10/08 05:32:53;;;;;;;11.57;4.92;;;9.00;86.90;;;;;;1872568;75;21003;-50
2021/10/08 05:35:23;;;;;;;9.90;4.60;;;9.00;86.70;;;;;;1872724;76;21066;-50
2021/10/08 05:37:53;;;;;;;11.03;4.35;;;9.10;86.80;;;;;;1872661;77;21031;-51
2021/10/08 05:40:22;;;;;;;8.93;4.22;;;9.10;86.50;;;;;;1872602;77;21039;-50
2021/10/08 05:42:53;;;;;;;11.28;4.33;;;9.10;86.40;;;;;;1872589;76;21101;-49
2021/10/08 05:45:22;;;;;;;9.90;4.72;;;9.10;86.30;;;;;;1853014;76;21065;-50
2021/10/08 05:47:52;;;;;;;10.45;4.10;;;9.10;86.50;;;;;;1846884;76;21029;-49
2021/10/08 05:50:21;;;;;;;10.45;4.33;;;9.10;86.20;;;;;;1846859;76;21029;-50
2021/10/08 05:52:51;;;;;;;16.15;9.53;;;9.10;86.30;;;;;;1846889;77;21049;-49
2021/10/08 05:55:22;;;;;;;9.45;6.17;;;9.20;86.50;;;;;;1846918;76;21050;-50
2021/10/08 05:57:52;;;;;;;9.38;4.33;;;9.20;86.50;;;;;;1847029;77;21115;-49
2021/10/08 06:00:21;;;;;;;10.88;4.08;;;9.30;86.50;;;;;;1846937;76;21030;-51
2021/10/08 06:02:51;;;;;;;6.95;2.47;;;9.30;86.50;;;;;;1847021;78;21108;-50
2021/10/08 06:05:23;;;;;;;16.50;4.50;;;9.40;85.30;;;;;;1846510;76;21088;-47
2021/10/08 06:07:53;;;;;;;10.60;3.77;;;9.40;85.60;;;;;;1847040;77;21030;-50
2021/10/08 06:10:22;;;;;;;6.65;4.35;;;9.40;85.70;;;;;;1847176;76;21038;-50
2021/10/08 06:12:51;;;;;;;7.87;3.92;;;9.40;85.70;;;;;;1847056;77;21038;-51
2021/10/08 06:15:21;;;;;;;8.88;4.53;;;9.40;85.50;;;;;;1846984;77;21010;-50
2021/10/08 06:17:50;;;;;;;5.20;3.02;;;9.50;85.70;;;;;;1846968;76;21030;-48
2021/10/08 06:20:21;;;;;;;9.20;4.83;;;9.50;85.30;;;;;;1847113;78;21045;-50
2021/10/08 06:22:51;;;;;;;12.43;4.80;;;9.50;85.10;;;;;;1846998;76;21099;-49
2021/10/08 06:25:22;;;;;;;9.03;4.45;;;9.60;85.50;;;;;;1846778;77;21009;-50
2021/10/08 06:27:52;;;;;;;9.75;5.22;;;9.60;85.40;;;;;;1846998;76;21022;-50
2021/10/08 06:30:23;;;;;;;5.17;4.20;;;9.70;85.20;;;;;;1846948;76;21051;-50
2021/10/08 06:32:54;;;;;;;11.73;4.97;;;9.70;84.40;;;;;;1847146;76;21041;-50
2021/10/08 06:35:24;;;;;;;6.55;4.90;;;9.70;84.70;;;;;;1846974;78;21006;-51
2021/10/08 06:37:55;;;;;;;11.45;5.65;;;9.70;84.80;;;;;;1847090;77;21543;-49
2021/10/08 06:40:24;;;;;;;11.40;5.55;;;9.70;84.70;;;;;;1847079;76;21077;-51
2021/10/08 06:42:54;;;;;;;10.08;5.60;;;9.70;84.50;;;;;;1846965;76;21480;-51
2021/10/08 06:45:25;;;;;;;7.83;4.90;;;9.80;84.20;;;;;;1858837;75;21086;-49
2021/10/08 06:47:55;;;;;;;11.48;5.70;;;9.80;84.10;;;;;;1872851;77;21055;-50
2021/10/08 06:50:26;;;;;;;14.38;6.62;;;9.80;84.90;;;;;;1872866;76;21039;-50
2021/10/08 06:52:57;;;;;;;16.97;6.33;;;9.90;84.30;;;;;;1872810;77;21180;-51
2021/10/08 06:55:27;;;;;;;11.40;7.22;;;9.90;83.80;;;;;;1873015;76;21101;-50
2021/10/08 06:57:56;;;;;;;11.48;7.50;;;9.90;83.80;;;;;;1872896;75;21007;-51
2021/10/08 07:00:26;;;;;;;14.98;7.12;;;9.90;83.70;;;;;;1872936;76;21113;-50
2021/10/08 07:02:57;;;;;;;9.70;6.83;;;9.90;83.80;;;;;;1872881;77;21559;-50
2021/10/08 07:05:28;;;;;;;12.33;7.60;;;9.90;83.10;;;;;;1872676;76;21083;-49
2021/10/08 07:07:58;;;;;;;7.30;5.92;;;9.90;83.70;;;;;;1872758;75;21035;-51
2021/10/08 07:10:28;;;;;;;11.20;6.45;;;9.90;83.50;;;;;;1872816;75;21007;-50
2021/10/08 07:12:57;;;;;;;11.70;7.10;;;9.90;83.30;;;;;;1872931;77;21039;-47
2021/10/08 07:15:28;;;;;;;10.03;7.08;;;10.00;83.70;;;;;;1872695;76;21031;-51
2021/10/08 07:17:58;;;;;;;10.53;6.65;;;10.00;83.50;;;;;;1872785;77;21019;-48
2021/10/08 07:20:29;;;;;;;12.05;6.92;;;10.00;83.20;;;;;;1872615;76;21080;-50
2021/10/08 07:22:59;;;;;;;12.73;6.72;;;10.00;83.00;;;;;;1872736;75;21031;-49
2021/10/08 07:25:29;;;;;;;10.48;7.37;;;10.00;83.20;;;;;;1872707;76;21035;-51
2021/10/08 07:27:59;;;;;;;16.10;8.48;;;10.10;83.20;;;;;;1872715;77;21102;-48
2021/10/08 07:30:28;;;;;;;14.70;6.95;;;10.10;83.30;;;;;;1872676;77;21023;-50
2021/10/08 07:32:58;;;;;;;11.57;7.87;;;10.20;83.00;;;;;;1872674;77;21034;-51
2021/10/08 07:35:27;;;;;;;7.55;5.70;;;10.20;83.00;;;;;;1872833;77;21125;-48
2021/10/08 07:37:56;;;;;;;10.43;7.03;;;10.30;82.70;;;;;;1872846;77;21027;-47
2021/10/08 07:40:26;;;;;;;9.50;6.72;;;10.30;82.70;;;;;;1872712;77;21034;-47
2021/10/08 07:42:55;;;;;;;15.20;7.62;;;10.40;82.60;;;;;;1871767;76;21119;-48
2021/10/08 07:45:25;;;;;;;11.20;7.22;;;10.40;82.70;;;;;;1871983;75;21126;-52
2021/10/08 07:47:54;;;;;;;11.50;7.90;;;10.50;82.60;;;;;;1891866;75;21098;-47
2021/10/08 07:50:24;;;;;;;12.13;8.50;;;10.50;82.10;;;;;;1902443;75;21059;-47
2021/10/08 07:52:53;;;;;;;7.28;6.58;;;10.60;82.20;;;;;;1876462;75;21111;-50
2021/10/08 07:55:23;;;;;;;8.75;7.00;;;10.60;81.70;;;;;;1871998;75;21028;-46
2021/10/08 07:57:52;;;;;;;7.42;5.28;;;10.70;81.70;;;;;;1871898;75;21009;-46
2021/10/08 08:00:21;;;;;;;8.58;7.65;;;10.70;81.50;;;;;;1872082;76;21137;-50
2021/10/08 08:02:51;;;;;;;14.68;7.62;;;10.70;81.20;;;;;;1872100;77;21005;-49
2021/10/08 08:05:20;;;;;;;11.68;6.58;;;10.80;81.50;;;;;;1872020;77;21096;-47
2021/10/08 08:07:50;;;;;;;9.58;7.80;;;10.90;81.90;;;;;;1872020;75;21134;-47
2021/10/08 08:10:20;;;;;;;25.97;9.13;;;11.00;81.60;;;;;;1872015;75;21134;-49
2021/10/08 08:12:49;;;;;;;11.50;7.35;;;11.20;81.80;;;;;;1871953;76;21036;-50
2021/10/08 08:15:19;;;;;;;8.80;7.03;;;11.30;80.50;;;;;;1872219;77;21044;-49
2021/10/08 08:17:48;;;;;;;12.18;7.20;;;11.40;80.10;;;;;;1872087;76;21083;-47
2021/10/08 08:20:18;;;;;;;11.83;6.65;;;11.50;80.20;;;;;;1872003;75;21087;-48
2021/10/08 08:22:47;;;;;;;8.83;5.65;;;11.60;79.80;;;;;;1871852;76;21072;-51
2021/10/08 08:25:16;;;;;;;14.53;8.80;;;11.70;79.40;;;;;;1871920;77;21064;-49
2021/10/08 08:27:46;;;;;;;6.80;4.30;;;11.70;79.90;;;;;;1872013;75;21098;-50
2021/10/08 08:30:15;;;;;;;9.43;4.80;;;11.80;78.70;;;;;;1871906;75;21080;-48
2021/10/08 08:32:44;;;;;;;8.83;4.45;;;11.80;78.50;;;;;;1871901;75;21060;-46
2021/10/08 08:35:14;;;;;;;14.58;5.50;;;11.80;77.40;;;;;;1871941;75;21190;-50
2021/10/08 08:37:43;;;;;;;7.60;3.42;;;11.80;78.80;;;;;;1870870;75;21139;-50
2021/10/08 08:40:14;;;;;;;8.48;5.65;;;11.90;78.00;;;;;;1871542;76;21467;-51
2021/10/08 08:42:43;;;;;;;3.75;3.40;;;12.00;78.80;;;;;;1883947;75;21066;-49
2021/10/08 08:45:13;;;;;;;10.20;4.70;;;12.10;78.80;;;;;;1901676;75;21116;-48
2021/10/08 08:47:43;;;;;;;10.48;3.98;;;12.10;78.40;;;;;;1922604;74;21046;-50
2021/10/08 08:50:15;;;;;;;5.10;3.50;;;12.20;78.00;;;;;;1923510;74;21030;-51
2021/10/08 08:52:46;;;;;;;6.15;3.87;;;12.20;77.20;;;;;;1923529;74;21031;-50
2021/10/08 08:55:15;;;;;;;9.68;4.33;;;12.20;77.10;;;;;;1923748;74;21054;-48
2021/10/08 08:57:44;;;;;;;6.37;4.00;;;12.20;77.80;;;;;;1923525;74;21002;-48
2021/10/08 09:00:19;;;;;;;7.85;2.85;;;12.20;77.50;;;;;;1900814;74;21034;-46
2021/10/08 09:02:59;;;;;;;8.48;4.35;;;12.30;76.60;;;;;;1890923;75;21058;-50
2021/10/08 09:05:30;;;;;;;7.92;4.30;;;12.40;77.20;;;;;;1890644;75;21028;-50
2021/10/08 09:08:05;;;;;;;7.72;4.75;;;12.40;75.50;;;;;;1890642;76;21082;-48
2021/10/08 09:10:39;;;;;;;8.75;5.65;;;12.40;76.00;;;;;;1891141;76;21048;-52
2021/10/08 09:13:09;;;;;;;7.17;4.37;;;12.30;76.20;;;;;;1890822;76;21103;-47
2021/10/08 09:15:53;;;;;;;7.70;4.33;;;12.20;76.60;;;;;;1890656;75;21032;-49
2021/10/08 09:18:24;;;;;;;9.95;3.58;;;12.20;76.50;;;;;;1889858;75;21055;-49
2021/10/08 09:21:08;;;;;;;7.85;6.15;;;12.30;76.10;;;;;;1890602;76;21036;-55
2021/10/08 09:23:41;;;;;;;9.98;4.58;;;12.30;76.80;;;;;;1890525;76;21028;-53
2021/10/08 09:26:21;;;;;;;8.45;4.10;;;12.40;76.60;;;;;;1890247;75;21055;-54
2021/10/08 09:28:59;;;;;;;4.67;2.92;;;12.50;77.00;;;;;;1890722;76;21142;-52
2021/10/08 09:31:43;;;;;;;11.90;4.12;;;12.50;75.60;;;;;;1890692;76;21044;-55
2021/10/08 09:34:14;;;;;;;11.18;3.47;;;12.50;75.70;;;;;;1890780;76;21115;-52
2021/10/08 09:36:48;;;;;;;4.15;2.47;;;12.60;75.10;;;;;;1890764;76;21141;-51
2021/10/08 09:39:27;;;;;;;4.50;3.37;;;12.60;75.00;;;;;;1890554;75;21588;-52
2021/10/08 09:42:15;;;;;;;9.30;3.70;;;12.60;75.20;;;;;;1890491;75;21032;-53
2021/10/08 09:44:54;;;;;;;7.42;4.15;;;12.60;75.00;;;;;;1890730;76;21057;-52
2021/10/08 09:47:29;;;;;;;6.25;3.52;;;12.60;74.80;;;;;;1879844;75;21084;-53
2021/10/08 09:50:12;;;;;;;6.58;4.08;;;12.60;75.00;;;;;;1871695;76;21636;-53
2021/10/08 09:52:42;;;;;;;4.45;2.22;;;12.60;75.20;;;;;;1872035;77;21009;-52
2021/10/08 09:55:13;;;;;;;5.42;3.02;;;12.70;74.90;;;;;;1872008;77;21036;-54
2021/10/08 09:57:53;;;;;;;5.47;3.17;;;12.90;75.10;;;;;;1871843;75;21068;-53
2021/10/08 10:00:57;;;;;;;6.92;3.58;;;13.00;74.60;;;;;;1872064;76;21568;-51
2021/10/08 10:03:18;;;;;;;6.10;3.65;;;13.10;74.30;;;;;;1870974;76;21140;-53
2021/10/08 10:05:48;;;;;;;4.42;2.72;;;13.20;74.10;;;;;;1871979;76;21086;-50
2021/10/08 10:08:17;;;;;;;8.60;3.27;;;13.20;73.20;;;;;;1872033;77;21005;-52
2021/10/08 10:10:48;;;;;;;5.42;3.80;;;13.20;73.40;;;;;;1872104;77;21037;-52
2021/10/08 10:13:17;;;;;;;5.35;3.75;;;13.20;73.80;;;;;;1872698;77;21025;-50
2021/10/08 10:15:48;;;;;;;6.37;3.77;;;13.20;74.00;;;;;;1873060;76;21132;-49
2021/10/08 10:18:20;;;;;;;4.75;3.12;;;13.20;73.90;;;;;;1872591;77;21036;-50
2021/10/08 10:20:51;;;;;;;12.47;4.70;;;13.30;74.00;;;;;;1872686;76;21102;-50
2021/10/08 10:23:22;;;;;;;5.85;3.72;;;13.30;74.40;;;;;;1872662;77;21107;-50
2021/10/08 10:25:52;;;;;;;6.42;3.00;;;13.40;74.30;;;;;;1872550;77;21099;-51
2021/10/08 10:28:22;;;;;;;5.62;3.42;;;13.50;73.30;;;;;;1872543;77;21102;-50
2021/10/08 10:30:53;;;;;;;10.40;3.25;;;13.50;73.40;;;;;;1872736;76;21032;-50
2021/10/08 10:33:27;;;;;;;15.00;4.12;;;13.60;73.50;;;;;;1872809;77;21102;-51
2021/10/08 10:35:59;;;;;;;7.12;3.55;;;13.60;73.30;;;;;;1872846;77;21059;-51
2021/10/08 10:38:40;;;;;;;5.17;2.77;;;13.70;73.20;;;;;;1872698;75;21574;-51
2021/10/08 10:41:12;;;;;;;7.87;3.83;;;13.80;72.00;;;;;;1872734;77;21024;-51
2021/10/08 10:43:48;;;;;;;8.33;4.17;;;13.90;73.10;;;;;;1872871;76;21025;-49
2021/10/08 10:52:05;;;;;;;6.08;3.72;;;14.10;71.70;;;;;;1872796;75;21103;-50
2021/10/08 10:54:53;;;;;;;5.62;3.70;;;14.10;71.30;;;;;;1872766;76;21546;-51
2021/10/08 10:57:29;;;;;;;8.33;3.42;;;14.10;70.90;;;;;;1872877;77;21173;-50
2021/10/08 11:00:15;;;;;;;6.28;3.12;;;14.10;71.30;;;;;;1872684;76;21096;-51
2021/10/08 11:02:45;;;;;;;10.80;5.08;;;14.10;72.20;;;;;;1872760;77;21025;-52
2021/10/08 11:05:20;;;;;;;7.92;4.55;;;14.20;71.90;;;;;;1872827;77;21106;-51
2021/10/08 11:08:11;;;;;;;7.92;4.10;;;14.20;71.40;;;;;;1872828;77;21048;-48
2021/10/08 11:10:48;;;;;;;12.40;6.00;;;14.30;71.10;;;;;;1872971;76;21103;-51
2021/10/08 11:13:27;;;;;;;6.33;4.08;;;14.30;71.20;;;;;;1860122;77;21212;-48
2021/10/08 11:16:07;;;;;;;9.65;5.28;;;14.40;71.00;;;;;;1872779;76;21095;-50
2021/10/08 11:18:51;;;;;;;16.07;7.55;;;14.40;70.90;;;;;;1872956;77;21112;-52
2021/10/08 11:21:34;;;;;;;14.55;7.30;;;14.40;70.80;;;;;;1872957;77;21005;-49
2021/10/08 11:24:23;;;;;;;6.40;4.55;;;14.40;70.80;;;;;;1872777;77;21487;-52
2021/10/08 11:26:57;;;;;;;10.32;4.05;;;14.40;70.40;;;;;;1872763;77;21097;-50
2021/10/08 11:29:31;;;;;;;7.20;3.80;;;14.50;71.50;;;;;;1872845;75;21130;-51
2021/10/08 11:32:09;;;;;;;7.25;4.83;;;14.60;70.00;;;;;;1872700;76;21037;-51
2021/10/08 11:34:56;;;;;;;8.23;4.58;;;14.70;69.50;;;;;;1872612;75;21053;-52
2021/10/08 11:37:28;;;;;;;9.48;4.87;;;14.70;69.40;;;;;;1872719;76;21124;-52
2021/10/08 11:39:57;;;;;;;7.85;4.28;;;14.80;69.90;;;;;;1872740;75;21009;-52
2021/10/08 11:42:28;;;;;;;9.68;4.97;;;14.90;69.80;;;;;;1872902;77;21096;-50
2021/10/08 11:45:04;;;;;;;8.25;3.87;;;14.90;69.30;;;;;;1872105;76;21051;-51
2021/10/08 11:50:43;;;;;;;9.18;3.92;;;14.90;68.80;;;;;;1882314;76;21043;-50
2021/10/08 11:53:00;;;;;;;11.12;3.47;;;14.90;68.50;;;;;;1879024;76;21039;-51
2021/10/08 11:55:38;;;;;;;7.22;3.50;;;14.80;68.80;;;;;;1882174;75;21056;-52
2021/10/08 11:58:12;;;;;;;14.40;4.03;;;14.80;68.80;;;;;;1881702;76;21122;-51
2021/10/08 12:00:48;;;;;;;7.60;4.42;;;14.80;68.70;;;;;;1881490;76;21540;-50
2021/10/08 12:03:24;;;;;;;10.68;4.80;;;14.80;68.40;;;;;;1882138;75;21043;-51
2021/10/08 12:06:04;;;;;;;11.95;3.75;;;14.90;69.00;;;;;;1881916;75;21036;-51
2021/10/08 12:08:36;;;;;;;4.47;3.37;;;14.90;68.30;;;;;;1881726;75;21586;-54
2021/10/08 12:11:16;;;;;;;14.70;4.85;;;14.90;68.30;;;;;;1882165;75;21055;-49
2021/10/08 12:13:52;;;;;;;4.15;2.85;;;15.00;68.70;;;;;;1881204;75;21036;-49
2021/10/08 12:16:24;;;;;;;7.65;3.92;;;15.00;68.50;;;;;;1882290;76;21121;-51
2021/10/08 12:18:58;;;;;;;5.87;2.60;;;15.00;69.00;;;;;;1882325;76;21040;-52
2021/10/08 12:21:36;;;;;;;7.45;3.47;;;15.00;67.70;;;;;;1882206;76;21127;-52
2021/10/08 12:24:12;;;;;;;5.22;3.00;;;15.00;68.00;;;;;;1881801;75;21105;-51
2021/10/08 12:26:43;;;;;;;3.85;2.33;;;15.00;68.40;;;;;;1882315;75;21466;-51
2021/10/08 12:29:15;;;;;;;5.20;2.83;;;15.10;67.30;;;;;;1880362;75;21039;-51
2021/10/08 12:31:59;;;;;;;10.32;3.00;;;15.10;67.70;;;;;;1882291;76;21043;-51
2021/10/08 12:34:36;;;;;;;7.60;2.22;;;15.10;67.60;;;;;;1882072;75;21098;-51
2021/10/08 12:37:07;;;;;;;4.97;2.77;;;15.10;67.10;;;;;;1882209;76;21098;-50
2021/10/08 12:39:39;;;;;;;2.00;1.62;;;15.20;67.60;;;;;;1882206;76;21474;-51
2021/10/08 12:42:22;;;;;;;3.10;2.02;;;15.20;65.70;;;;;;1882245;76;21498;-51
2021/10/08 12:45:01;;;;;;;5.30;2.17;;;15.20;67.00;;;;;;1873096;76;21036;-50
2021/10/08 12:47:41;;;;;;;6.75;2.72;;;15.20;67.00;;;;;;1882127;76;21185;-51
2021/10/08 12:50:19;;;;;;;3.22;2.52;;;15.20;66.60;;;;;;1884619;76;21052;-52
2021/10/08 12:52:50;;;;;;;7.17;3.62;;;15.20;67.00;;;;;;1884647;76;21037;-51
2021/10/08 12:55:22;;;;;;;7.35;3.72;;;15.20;67.00;;;;;;1884695;76;21024;-52
2021/10/08 12:58:17;;;;;;;6.55;4.12;;;15.20;66.70;;;;;;1884803;76;21459;-51
2021/10/08 13:00:50;;;;;;;4.00;2.50;;;15.20;66.50;;;;;;1884596;75;21113;-50
2021/10/08 13:03:37;;;;;;;5.20;2.37;;;15.20;66.10;;;;;;1884889;76;21102;-51
2021/10/08 13:06:21;;;;;;;3.87;2.05;;;15.20;65.90;;;;;;1884528;76;21098;-52
2021/10/08 13:09:13;;;;;;;4.72;2.77;;;15.20;65.40;;;;;;1884501;76;21028;-50
2021/10/08 13:11:43;;;;;;;4.00;2.00;;;15.10;65.90;;;;;;1884604;76;21020;-52
2021/10/08 13:14:27;;;;;;;9.20;2.50;;;15.10;66.40;;;;;;1883789;76;21036;-51
2021/10/08 13:16:57;;;;;;;7.50;4.17;;;15.20;66.30;;;;;;1884549;76;21137;-51
2021/10/08 13:19:37;;;;;;;5.92;4.00;;;15.20;66.10;;;;;;1884702;76;21024;-52
2021/10/08 13:22:07;;;;;;;8.93;3.37;;;15.20;66.30;;;;;;1884605;76;21123;-51